LFBI/PIS METAR and TAF weather

Enter ICAO airport designator
Station Type Date Time Source
LFBI METAR 2020/11/28 20:00 UTC NOAA

LFBI 282000Z AUTO 03006KT CAVOK 08/05 Q1014 NOSIG


Station Type Date Time Source
LFBI Decoded METAR 2020/11/28 20:00 UTC NOAA

Poitiers, France (LFBI) 46-35N 000-19E 120M
Nov 28, 2020 - 03:00 PM EST / 2020.11.28 2000 UTC
Wind: from the NNE (030 degrees) at 7 MPH (6 KT):0
Visibility: greater than 7 mile(s):0
Temperature: 46 F (8 C)
Dew Point: 41 F (5 C)
Relative Humidity: 81%
Pressure (altimeter): 29.94 in. Hg (1014 hPa)
ob: LFBI 282000Z AUTO 03006KT CAVOK 08/05 Q1014 NOSIG
cycle: 20

Station Type Date Time Source
LFBI TAF 2020/11/28 18:21 UTC NOAA

TAF LFBI 281700Z 2818/2918 06008KT CAVOK
TEMPO 2822/2909 3000 BR PROB40 2900/2908 0400 FG VV///

Example: see airport list